Meteorological Aerodrome Report (METAR)

METAR

Data at: 2140 UTC 15 Dec 2018

METAR for:NVSC (Sola/Vanua Lava Arpt, --, NV)
Text:NVSC 152100Z 12005KT 9999 SCT020 30/24 Q1008 RMK NIL
Temperature: 30.0°C ( 86°F)
Dewpoint: 24.0°C ( 75°F) [RH = 70%]
Pressure (altimeter):29.76 inches Hg (1008.0 mb)
Winds:from the ESE (120 degrees) at 6 MPH (5 knots; 2.6 m/s)
Visibility:6 or more sm (10+ km)
Ceiling:at least 12,000 feet AGL
Clouds: scattered clouds at 2000 feet AGL

METAR

Data at: 2140 UTC 15 Dec 2018

METAR for:NVSG (Longana Arpt, --, NV)
Text:NVSG 151800Z AUTO 00004KT //// // NCD 26/22 Q1010 RMK NIL
Temperature: 26.0°C ( 79°F)
Dewpoint: 22.0°C ( 72°F) [RH = 79%]
Pressure (altimeter):29.82 inches Hg (1010.0 mb)
Winds:variable direction winds at 5 MPH (4 knots; 2.1 m/s)
Ceiling:at least 12,000 feet AGL
Clouds:sky clear below 12,000 feet AGL

METAR

Data at: 2140 UTC 15 Dec 2018

METAR for:NVSS (Santo/Pekoa Intl, --, NV)
Text:NVSS 152100Z AUTO 13007KT //// // NCD 28/23 Q1008 RMK NIL
Temperature: 28.0°C ( 82°F)
Dewpoint: 23.0°C ( 73°F) [RH = 74%]
Pressure (altimeter):29.76 inches Hg (1008.0 mb)
Winds:from the SE (130 degrees) at 8 MPH (7 knots; 3.6 m/s)
Ceiling:at least 12,000 feet AGL
Clouds:sky clear below 12,000 feet AGL

METAR

Data at: 2140 UTC 15 Dec 2018

METAR for:NVSL (Malekula/Lamap, --, NV)
Text:NVSL 152100Z AUTO 13006KT //// // NCD 28/23 Q1008 RMK NIL
Temperature: 28.0°C ( 82°F)
Dewpoint: 23.0°C ( 73°F) [RH = 74%]
Pressure (altimeter):29.76 inches Hg (1008.0 mb)
Winds:from the SE (130 degrees) at 7 MPH (6 knots; 3.1 m/s)
Ceiling:at least 12,000 feet AGL
Clouds:sky clear below 12,000 feet AGL

METAR

Data at: 2140 UTC 15 Dec 2018

METAR for:NVSP (Norsup Arpt, --, NV)
Text:No data found

METAR

Data at: 2140 UTC 15 Dec 2018

METAR for:NVVV (Efate/Bauerfield Int, --, NV)
Text:NVVV 152100Z 13007KT 9999 BKN020 27/23 Q1009 RMK NIL
Temperature: 27.0°C ( 81°F)
Dewpoint: 23.0°C ( 73°F) [RH = 79%]
Pressure (altimeter):29.79 inches Hg (1009.0 mb)
Winds:from the SE (130 degrees) at 8 MPH (7 knots; 3.6 m/s)
Visibility:6 or more sm (10+ km)
Ceiling:2000 feet AGL
Clouds: broken clouds at 2000 feet AGL

METAR

Data at: 2140 UTC 15 Dec 2018

METAR for:NVVW (Tanna Arpt, --, NV)
Text:NVVW 152100Z 00000KT 9999 FEW025 28/23 Q1010 RMK NIL
Temperature: 28.0°C ( 82°F)
Dewpoint: 23.0°C ( 73°F) [RH = 74%]
Pressure (altimeter):29.82 inches Hg (1010.0 mb)
Winds:calm
Visibility:6 or more sm (10+ km)
Ceiling:at least 12,000 feet AGL
Clouds: few clouds at 2500 feet AGL

METAR

Data at: 2140 UTC 15 Dec 2018

METAR for:NVVA (Aneityum/Mystery Isl, --, NV)
Text:NVVA 152100Z 13005KT 9999 SCT020 BKN040 27/23 Q1011 RMK NIL
Temperature: 27.0°C ( 81°F)
Dewpoint: 23.0°C ( 73°F) [RH = 79%]
Pressure (altimeter):29.85 inches Hg (1011.0 mb)
Winds:from the SE (130 degrees) at 6 MPH (5 knots; 2.6 m/s)
Visibility:6 or more sm (10+ km)
Ceiling:4000 feet AGL
Clouds: scattered clouds at 2000 feet AGL, broken clouds at 4000 feet AGL

METAR

Data at: 2140 UTC 15 Dec 2018

NVVV 152100Z 13007KT 9999 BKN020 27/23 Q1009 RMK NIL
NVSC 152100Z 12005KT 9999 SCT020 30/24 Q1008 RMK NIL
NVSG 151800Z AUTO 00004KT //// // NCD 26/22 Q1010 RMK NIL
NVSS 152100Z AUTO 13007KT //// // NCD 28/23 Q1008 RMK NIL
NVSL 152100Z AUTO 13006KT //// // NCD 28/23 Q1008 RMK NIL
No Data available for NVSP
NVVW 152100Z 00000KT 9999 FEW025 28/23 Q1010 RMK NIL
NVVA 152100Z 13005KT 9999 SCT020 BKN040 27/23 Q1011 RMK NIL